createdAt,value
2018-04-01T00:02:07.109Z,2.20
2018-04-01T00:04:34.147Z,2.10
2018-04-01T00:07:01.166Z,2.73
2018-04-01T00:09:28.169Z,2.17
2018-04-01T00:11:55.225Z,2.40
2018-04-01T00:14:22.239Z,2.50
2018-04-01T00:16:49.245Z,2.00
2018-04-01T00:19:16.270Z,2.20
2018-04-01T00:21:43.270Z,1.70
2018-04-01T00:24:10.304Z,1.87
2018-04-01T00:26:37.487Z,2.13
2018-04-01T00:29:04.490Z,2.33
2018-04-01T00:31:31.498Z,2.30
2018-04-01T00:33:58.527Z,2.17
2018-04-01T00:36:25.534Z,1.83
2018-04-01T00:38:52.536Z,2.30
2018-04-01T00:41:19.594Z,2.10
2018-04-01T00:43:46.597Z,2.10
2018-04-01T00:46:13.771Z,2.23
2018-04-01T00:48:41.445Z,2.00
2018-04-01T00:51:08.466Z,2.10
2018-04-01T00:53:35.462Z,1.87
2018-04-01T00:56:02.810Z,2.27
2018-04-01T00:58:29.818Z,2.20
2018-04-01T01:00:56.817Z,2.17
2018-04-01T01:03:23.932Z,2.43
2018-04-01T01:05:50.942Z,2.30
2018-04-01T01:08:17.983Z,1.97
2018-04-01T01:10:45.301Z,1.83
2018-04-01T01:13:12.304Z,2.30
2018-04-01T01:15:39.309Z,2.40
2018-04-01T01:18:06.634Z,2.40
2018-04-01T01:20:33.633Z,2.40
2018-04-01T01:23:00.641Z,2.57
2018-04-01T01:25:27.774Z,2.37
2018-04-01T01:27:54.781Z,2.90
2018-04-01T01:30:21.834Z,2.23
2018-04-01T01:32:48.842Z,2.20
2018-04-01T01:35:15.849Z,2.90
2018-04-01T01:37:42.995Z,2.30
2018-04-01T01:40:10.013Z,2.77
2018-04-01T01:42:37.043Z,2.33
2018-04-01T01:45:04.098Z,2.77
2018-04-01T01:47:31.112Z,2.80
2018-04-01T01:49:59.242Z,2.23
2018-04-01T01:52:26.399Z,2.63
2018-04-01T01:54:53.402Z,2.93
2018-04-01T01:57:20.420Z,3.43
2018-04-01T01:59:47.752Z,2.97
2018-04-01T02:02:14.762Z,3.23
2018-04-01T02:04:41.773Z,3.30
2018-04-01T02:07:08.809Z,3.70
2018-04-01T02:09:35.835Z,3.13
2018-04-01T02:12:02.862Z,3.57
2018-04-01T02:14:29.919Z,3.67
2018-04-01T02:16:56.920Z,3.60
2018-04-01T02:19:23.949Z,3.30
2018-04-01T02:21:51.129Z,3.50
2018-04-01T02:24:18.158Z,3.10
2018-04-01T02:26:45.169Z,2.93
2018-04-01T02:29:12.320Z,3.10
2018-04-01T02:31:39.339Z,3.20
2018-04-01T02:34:06.354Z,3.93
2018-04-01T02:36:33.514Z,2.97
2018-04-01T02:39:00.521Z,3.80
2018-04-01T02:41:27.535Z,3.23
2018-04-01T02:43:54.566Z,3.90
2018-04-01T02:46:21.576Z,3.37
2018-04-01T02:48:48.594Z,3.63
2018-04-01T02:51:15.649Z,4.30
2018-04-01T02:53:42.649Z,3.77
2018-04-01T02:56:09.646Z,4.20
2018-04-01T02:58:36.687Z,4.70
2018-04-01T03:01:03.688Z,3.90
2018-04-01T03:03:30.707Z,4.30
2018-04-01T03:05:57.885Z,4.83
2018-04-01T03:08:24.892Z,4.40
2018-04-01T03:10:51.917Z,4.67
2018-04-01T03:13:18.957Z,4.40
2018-04-01T03:15:45.968Z,5.10
2018-04-01T03:18:12.969Z,4.80
2018-04-01T03:20:40.072Z,4.73
2018-04-01T03:23:07.098Z,5.43
2018-04-01T03:25:34.108Z,5.00
2018-04-01T03:28:01.136Z,5.07
2018-04-01T03:30:28.152Z,5.80
2018-04-01T03:32:55.149Z,5.63
2018-04-01T03:35:22.201Z,5.97
2018-04-01T03:37:49.218Z,6.50
2018-04-01T03:40:16.248Z,7.37
2018-04-01T03:42:43.317Z,7.57
2018-04-01T03:45:10.347Z,7.80
2018-04-01T03:47:37.362Z,7.70
2018-04-01T03:50:04.566Z,5.97
2018-04-01T03:52:31.563Z,5.80
2018-04-01T03:54:58.570Z,5.73
2018-04-01T03:57:25.754Z,4.20
2018-04-01T03:59:52.757Z,2.10
2018-04-01T04:02:19.782Z,0.90
2018-04-01T04:04:46.837Z,1.50
2018-04-01T04:07:13.881Z,1.40
2018-04-01T04:09:40.888Z,1.87
2018-04-01T04:12:08.214Z,1.30
2018-04-01T04:14:35.222Z,1.20
2018-04-01T04:17:02.221Z,0.93
2018-04-01T04:19:29.286Z,1.10
2018-04-01T04:21:56.294Z,0.90
2018-04-01T04:24:23.300Z,0.90
2018-04-01T04:26:50.337Z,1.80
2018-04-01T04:29:17.341Z,1.20
2018-04-01T04:31:44.337Z,1.13
2018-04-01T04:34:11.654Z,0.83
2018-04-01T04:36:38.656Z,0.90
2018-04-01T04:39:05.665Z,0.80
2018-04-01T04:41:32.849Z,1.20
2018-04-01T04:43:59.837Z,2.40
2018-04-01T04:46:26.852Z,1.10
2018-04-01T04:48:53.922Z,0.60
2018-04-01T04:51:20.922Z,0.70
2018-04-01T04:53:47.959Z,0.60
2018-04-01T04:56:15.290Z,0.80
2018-04-01T04:58:42.289Z,0.70
2018-04-01T05:01:09.302Z,0.80
2018-04-01T05:03:36.345Z,0.73
2018-04-01T05:06:03.353Z,0.80
2018-04-01T05:08:30.356Z,0.70
2018-04-01T05:10:57.412Z,0.77
2018-04-01T05:13:24.422Z,0.80
2018-04-01T05:15:51.431Z,0.87
2018-04-01T05:18:18.473Z,0.90
2018-04-01T05:20:45.464Z,0.90
2018-04-01T05:23:12.499Z,0.70
2018-04-01T05:25:39.692Z,0.80
2018-04-01T05:28:06.721Z,2.07
2018-04-01T05:30:33.760Z,1.23
2018-04-01T05:33:00.765Z,3.47
2018-04-01T05:35:27.777Z,4.70
2018-04-01T05:37:54.826Z,4.53
2018-04-01T05:40:21.844Z,2.23
2018-04-01T05:42:48.871Z,0.90
2018-04-01T05:45:15.939Z,0.80
2018-04-01T05:47:42.949Z,6.33
2018-04-01T05:50:09.965Z,1.03
2018-04-01T05:52:37.284Z,0.80
2018-04-01T05:55:04.287Z,0.80
2018-04-01T05:57:31.299Z,1.10
2018-04-01T05:59:58.330Z,1.30
2018-04-01T06:02:26.314Z,2.53
2018-04-01T06:04:53.338Z,1.30
2018-04-01T06:07:20.371Z,2.03
2018-04-01T06:09:47.389Z,3.27
2018-04-01T06:12:14.428Z,0.90
2018-04-01T06:14:41.614Z,2.67
2018-04-01T06:17:08.619Z,1.30
2018-04-01T06:19:35.652Z,2.30
2018-04-01T06:22:02.704Z,2.17
2018-04-01T06:24:29.705Z,3.10
2018-04-01T06:26:56.721Z,1.70
2018-04-01T06:29:23.864Z,1.53
2018-04-01T06:31:50.891Z,0.70
2018-04-01T06:34:17.897Z,2.03
2018-04-01T06:36:44.954Z,1.03
2018-04-01T06:39:11.968Z,0.67
2018-04-01T06:41:38.975Z,1.50
2018-04-01T06:44:06.058Z,0.70
2018-04-01T06:46:33.071Z,0.70
2018-04-01T06:49:00.075Z,1.10
2018-04-01T06:51:27.792Z,1.00
2018-04-01T06:53:54.799Z,0.70
2018-04-01T06:56:21.802Z,3.87
2018-04-01T06:58:48.858Z,4.07
2018-04-01T07:01:15.884Z,1.33
2018-04-01T07:03:42.890Z,0.77
2018-04-01T07:06:10.315Z,1.40
2018-04-01T07:08:37.324Z,2.27
2018-04-01T07:11:04.345Z,1.80
2018-04-01T07:13:31.394Z,1.30
2018-04-01T07:15:58.410Z,0.60
2018-04-01T07:18:25.421Z,0.80
2018-04-01T07:20:52.590Z,0.90
2018-04-01T07:23:19.594Z,0.80
2018-04-01T07:25:46.640Z,1.10
2018-04-01T07:28:13.690Z,0.77
2018-04-01T07:30:40.705Z,0.90
2018-04-01T07:33:07.718Z,2.50
2018-04-01T07:35:34.920Z,1.00
2018-04-01T07:38:01.923Z,1.00
2018-04-01T07:40:28.937Z,0.80
2018-04-01T07:42:55.990Z,1.00
2018-04-01T07:45:23.001Z,0.80
2018-04-01T07:47:50.009Z,1.10
2018-04-01T07:50:17.672Z,1.10
2018-04-01T07:52:44.682Z,1.60
2018-04-01T07:55:11.704Z,1.00
2018-04-01T07:57:38.775Z,1.03
2018-04-01T08:00:05.800Z,1.20
2018-04-01T08:02:32.813Z,0.90
2018-04-01T08:05:00.014Z,1.33
2018-04-01T08:07:27.678Z,0.90
2018-04-01T08:09:54.694Z,1.70
2018-04-01T08:12:21.892Z,1.07
2018-04-01T08:14:48.902Z,1.20
2018-04-01T08:17:15.940Z,1.03
2018-04-01T08:19:43.174Z,1.33
2018-04-01T08:22:10.206Z,1.00
2018-04-01T08:24:37.230Z,1.40
2018-04-01T08:27:04.446Z,0.93
2018-04-01T08:29:31.461Z,1.10
2018-04-01T08:31:58.481Z,1.00
2018-04-01T08:34:25.642Z,1.00
2018-04-01T08:36:52.646Z,0.90
2018-04-01T08:39:19.652Z,1.20
2018-04-01T08:41:46.702Z,1.40
2018-04-01T08:44:13.720Z,1.30
2018-04-01T08:46:40.745Z,1.23
2018-04-01T08:49:07.952Z,0.93
2018-04-01T08:51:34.977Z,1.63
2018-04-01T08:54:01.983Z,1.67
2018-04-01T08:56:29.306Z,1.17
2018-04-01T08:58:56.347Z,1.00
2018-04-01T09:01:23.367Z,1.00
2018-04-01T09:03:50.440Z,1.03
2018-04-01T09:06:17.447Z,0.90
2018-04-01T09:08:44.460Z,1.00
2018-04-01T09:11:11.793Z,1.13
2018-04-01T09:13:38.802Z,1.10
2018-04-01T09:16:05.810Z,1.13
2018-04-01T09:18:32.860Z,1.07
2018-04-01T09:20:59.868Z,1.10
2018-04-01T09:23:27.051Z,1.20
2018-04-01T09:25:54.389Z,1.33
2018-04-01T09:28:21.651Z,1.10
2018-04-01T09:30:48.664Z,1.50
2018-04-01T09:33:15.717Z,1.20
2018-04-01T09:35:42.719Z,1.00
2018-04-01T09:38:09.760Z,1.40
2018-04-01T09:40:36.762Z,1.33
2018-04-01T09:43:03.779Z,1.73
2018-04-01T09:45:31.434Z,2.17
2018-04-01T09:47:58.477Z,2.10
2018-04-01T09:50:25.483Z,1.70
2018-04-01T09:52:52.526Z,1.60
2018-04-01T09:55:19.574Z,1.13
2018-04-01T09:57:46.602Z,1.13
2018-04-01T10:00:13.692Z,1.83
2018-04-01T10:02:41.243Z,1.27
2018-04-01T10:05:10.814Z,1.80
2018-04-01T10:07:38.393Z,5.73
2018-04-01T10:10:05.975Z,4.20
2018-04-01T10:12:33.523Z,3.80
2018-04-01T10:15:01.259Z,1.43
2018-04-01T10:17:28.853Z,2.30
2018-04-01T10:19:56.399Z,1.17
2018-04-01T10:22:24.130Z,1.40
2018-04-01T10:24:51.682Z,1.63
2018-04-01T10:27:19.228Z,1.23
2018-04-01T10:29:46.952Z,1.43
2018-04-01T10:32:14.496Z,1.57
2018-04-01T10:34:42.030Z,1.70
2018-04-01T10:37:09.599Z,1.30
2018-04-01T10:39:37.151Z,1.20
2018-04-01T10:42:04.698Z,1.83
2018-04-01T10:44:32.288Z,1.40
2018-04-01T10:46:59.840Z,1.20
2018-04-01T10:49:27.398Z,1.50
2018-04-01T10:51:55.125Z,1.00
2018-04-01T10:54:22.144Z,1.40
2018-04-01T10:56:49.155Z,1.50
2018-04-01T10:59:16.199Z,1.23
2018-04-01T11:01:43.204Z,2.10
2018-04-01T11:04:10.222Z,1.53
2018-04-01T11:06:37.546Z,1.40
2018-04-01T11:09:04.591Z,1.90
2018-04-01T11:11:31.601Z,1.33
2018-04-01T11:13:58.928Z,1.37
2018-04-01T11:16:25.945Z,1.43
2018-04-01T11:18:52.945Z,1.20
2018-04-01T11:21:20.231Z,1.60
2018-04-01T11:23:47.248Z,0.80
2018-04-01T11:26:14.271Z,0.83
2018-04-01T11:28:41.461Z,0.80
2018-04-01T11:31:08.493Z,0.80
2018-04-01T11:33:35.510Z,0.90
2018-04-01T11:36:02.551Z,1.30
2018-04-01T11:38:29.553Z,0.83
2018-04-01T11:40:56.564Z,0.93
2018-04-01T11:43:23.649Z,1.07
2018-04-01T11:45:50.669Z,1.30
2018-04-01T11:48:17.725Z,3.53
2018-04-01T11:50:44.774Z,1.23
2018-04-01T11:53:11.793Z,1.10
2018-04-01T11:55:38.799Z,1.10
2018-04-01T11:58:05.835Z,1.03
2018-04-01T12:00:32.849Z,0.90
2018-04-01T12:02:59.954Z,0.80
2018-04-01T12:05:26.989Z,2.10
2018-04-01T12:07:54.007Z,2.03
2018-04-01T12:10:21.041Z,1.40
2018-04-01T12:12:48.103Z,1.70
2018-04-01T12:15:15.137Z,1.20
2018-04-01T12:17:42.147Z,0.60
2018-04-01T12:20:09.415Z,1.00
2018-04-01T12:22:36.433Z,1.30
2018-04-01T12:25:03.461Z,0.87
2018-04-01T12:27:30.739Z,0.80
2018-04-01T12:29:57.788Z,0.80
2018-04-01T12:32:24.826Z,1.50
2018-04-01T12:34:51.869Z,1.33
2018-04-01T12:37:18.888Z,1.60
2018-04-01T12:39:45.920Z,2.77
2018-04-01T12:42:12.980Z,2.90
2018-04-01T12:44:40.042Z,1.93
2018-04-01T12:47:07.050Z,1.87
2018-04-01T12:49:34.268Z,1.60
2018-04-01T12:52:01.303Z,1.77
2018-04-01T12:54:28.311Z,1.40
2018-04-01T12:56:55.513Z,1.60
2018-04-01T12:59:22.552Z,1.27
2018-04-01T13:01:49.608Z,1.20
2018-04-01T13:04:16.934Z,1.53
2018-04-01T13:06:43.952Z,1.60
2018-04-01T13:09:10.993Z,1.30
2018-04-01T13:11:38.054Z,1.60
2018-04-01T13:14:05.059Z,1.10
2018-04-01T13:16:32.114Z,1.30
2018-04-01T13:18:59.204Z,1.67
2018-04-01T13:21:26.233Z,1.50
2018-04-01T13:23:53.279Z,1.47
2018-04-01T13:26:20.502Z,1.90
2018-04-01T13:28:47.510Z,1.40
2018-04-01T13:31:14.529Z,1.50
2018-04-01T13:33:41.570Z,1.67
2018-04-01T13:36:08.602Z,1.20
2018-04-01T13:38:35.652Z,1.50
2018-04-01T13:41:02.688Z,1.50
2018-04-01T13:43:29.696Z,1.73
2018-04-01T13:45:56.838Z,1.30
2018-04-01T13:48:23.864Z,1.43
2018-04-01T13:50:50.928Z,1.47
2018-04-01T13:53:18.151Z,1.27
2018-04-01T13:55:45.179Z,1.87
2018-04-01T13:58:12.262Z,1.90
2018-04-01T14:00:39.350Z,1.63
2018-04-01T14:03:06.369Z,1.50
2018-04-01T14:05:33.431Z,1.33
2018-04-01T14:08:00.502Z,1.30
2018-04-01T14:10:27.517Z,1.27
2018-04-01T14:12:54.520Z,1.00
2018-04-01T14:15:21.706Z,1.00
2018-04-01T14:17:48.732Z,0.90
2018-04-01T14:20:15.787Z,1.10
2018-04-01T14:22:42.827Z,4.43
2018-04-01T14:25:09.875Z,2.07
2018-04-01T14:27:36.935Z,1.60
2018-04-01T14:30:03.973Z,1.83
2018-04-01T14:32:30.974Z,2.30
2018-04-01T14:34:57.987Z,2.70
2018-04-01T14:37:25.044Z,3.93
2018-04-01T14:39:52.091Z,5.67
2018-04-01T14:42:19.104Z,8.47
2018-04-01T14:44:47.161Z,7.70
2018-04-01T14:47:14.225Z,9.40
2018-04-01T14:49:41.818Z,4.27
2018-04-01T14:52:08.895Z,3.97
2018-04-01T14:54:35.911Z,4.13
2018-04-01T14:57:02.922Z,6.73
2018-04-01T14:59:30.070Z,3.03
2018-04-01T15:01:57.085Z,2.90
2018-04-01T15:04:24.108Z,2.10
2018-04-01T15:06:51.168Z,2.60
2018-04-01T15:09:18.204Z,3.80
2018-04-01T15:11:45.212Z,3.70
2018-04-01T15:14:12.550Z,2.27
2018-04-01T15:16:39.574Z,2.90
2018-04-01T15:19:06.582Z,2.10
2018-04-01T15:21:33.654Z,2.40
2018-04-01T15:24:00.674Z,2.33
2018-04-01T15:26:27.702Z,2.17
2018-04-01T15:28:54.745Z,2.47
2018-04-01T15:31:21.757Z,1.93
2018-04-01T15:33:48.859Z,1.60
2018-04-01T15:36:15.918Z,2.87
2018-04-01T15:38:42.926Z,2.33
2018-04-01T15:41:09.939Z,4.73
2018-04-01T15:43:36.984Z,3.57
2018-04-01T15:46:03.999Z,3.17
2018-04-01T15:48:31.052Z,2.80
2018-04-01T15:50:58.189Z,4.40
2018-04-01T15:53:25.245Z,3.90
2018-04-01T15:55:52.263Z,4.70
2018-04-01T15:58:19.324Z,3.60
2018-04-01T16:00:46.343Z,5.20
2018-04-01T16:03:13.357Z,3.63
2018-04-01T16:05:40.453Z,3.30
2018-04-01T16:08:07.512Z,3.83
2018-04-01T16:10:34.551Z,3.00
2018-04-01T16:13:01.858Z,4.07
2018-04-01T16:15:28.866Z,3.60
2018-04-01T16:17:55.877Z,3.80
2018-04-01T16:20:23.080Z,4.00
2018-04-01T16:22:50.118Z,3.97
2018-04-01T16:25:17.197Z,3.83
2018-04-01T16:27:44.267Z,3.17
2018-04-01T16:30:11.314Z,3.43
2018-04-01T16:32:38.358Z,3.80
2018-04-01T16:35:05.414Z,3.40
2018-04-01T16:37:32.434Z,3.60
2018-04-01T16:39:59.460Z,3.50
2018-04-01T16:42:26.633Z,4.20
2018-04-01T16:44:53.631Z,2.73
2018-04-01T16:47:20.651Z,3.13
2018-04-01T16:49:47.771Z,4.47
2018-04-01T16:52:14.790Z,5.20
2018-04-01T16:54:41.869Z,8.83
2018-04-01T16:57:08.910Z,6.43
2018-04-01T16:59:36.012Z,7.83
2018-04-01T17:02:03.134Z,37.40
2018-04-01T17:04:30.231Z,112.67
2018-04-01T17:06:57.275Z,27.90
2018-04-01T17:09:24.448Z,75.73
2018-04-01T17:11:51.642Z,49.30
2018-04-01T17:14:18.675Z,51.37
2018-04-01T17:16:45.836Z,25.30
2018-04-01T17:19:12.925Z,7.67
2018-04-01T17:21:39.987Z,4.90
2018-04-01T17:24:07.006Z,4.33
2018-04-01T17:26:34.236Z,3.17
2018-04-01T17:29:01.264Z,2.13
2018-04-01T17:31:28.330Z,1.90
2018-04-01T17:33:55.353Z,2.03
2018-04-01T17:36:22.388Z,4.87
2018-04-01T17:38:49.443Z,2.47
2018-04-01T17:41:16.457Z,1.90
2018-04-01T17:43:43.464Z,2.00
2018-04-01T17:46:10.623Z,2.33
2018-04-01T17:48:37.641Z,2.30
2018-04-01T17:51:04.658Z,2.50
2018-04-01T17:53:31.842Z,2.80
2018-04-01T17:55:58.870Z,2.80
2018-04-01T17:58:25.897Z,24.00
2018-04-01T18:00:53.159Z,33.07
2018-04-01T18:03:20.193Z,28.37
2018-04-01T18:05:47.229Z,62.83
2018-04-01T18:08:14.449Z,7.67
2018-04-01T18:10:41.519Z,5.13
2018-04-01T18:13:08.565Z,9.10
2018-04-01T18:15:35.637Z,4.90
2018-04-01T18:18:02.712Z,4.53
2018-04-01T18:20:29.734Z,4.40
2018-04-01T18:22:56.908Z,13.33
2018-04-01T18:25:23.980Z,9.33
2018-04-01T18:27:50.999Z,6.00
2018-04-01T18:30:18.105Z,5.13
2018-04-01T18:32:45.141Z,8.20
2018-04-01T18:35:12.153Z,6.30
2018-04-01T18:37:39.218Z,5.07
2018-04-01T18:40:06.214Z,5.10
2018-04-01T18:42:33.242Z,5.07
2018-04-01T18:45:00.341Z,4.83
2018-04-01T18:47:27.414Z,4.63
2018-04-01T18:49:54.436Z,4.67
2018-04-01T18:52:21.526Z,5.23
2018-04-01T18:54:48.597Z,4.50
2018-04-01T18:57:15.621Z,4.70
2018-04-01T18:59:42.655Z,5.63
2018-04-01T19:02:09.690Z,4.90
2018-04-01T19:04:36.748Z,5.37
2018-04-01T19:07:03.847Z,5.17
2018-04-01T19:09:30.924Z,4.80
2018-04-01T19:11:57.951Z,5.40
2018-04-01T19:14:25.001Z,4.67
2018-04-01T19:17:08.308Z,5.13
2018-04-01T19:19:36.069Z,4.80
2018-04-01T19:22:03.725Z,5.23
2018-04-01T19:24:31.330Z,4.67
2018-04-01T19:26:59.085Z,5.53
2018-04-01T19:29:26.646Z,4.73
2018-04-01T19:31:54.190Z,5.07
2018-04-01T19:34:21.761Z,4.60
2018-04-01T19:36:49.325Z,4.63
2018-04-01T19:39:17.153Z,4.50
2018-04-01T19:41:44.751Z,4.93
2018-04-01T19:44:12.308Z,4.77
2018-04-01T19:46:40.002Z,4.37
2018-04-01T19:49:07.600Z,4.30
2018-04-01T19:51:35.209Z,4.90
2018-04-01T19:54:02.785Z,4.93
2018-04-01T19:56:30.370Z,4.73
2018-04-01T19:58:58.024Z,4.30
2018-04-01T20:01:25.714Z,4.00
2018-04-01T20:03:53.523Z,3.83
2018-04-01T20:06:21.113Z,4.30
2018-04-01T20:08:48.841Z,4.80
2018-04-01T20:11:16.452Z,5.30
2018-04-01T20:13:44.125Z,4.93
2018-04-01T20:16:11.877Z,4.83
2018-04-01T20:18:39.438Z,5.50
2018-04-01T20:21:07.049Z,5.50
2018-04-01T20:23:34.640Z,5.20
2018-04-01T20:26:02.210Z,5.37
2018-04-01T20:28:29.785Z,4.83
2018-04-01T20:30:57.686Z,5.23
2018-04-01T20:33:25.295Z,4.90
2018-04-01T20:35:52.884Z,5.37
2018-04-01T20:38:20.545Z,5.67
2018-04-01T20:40:48.104Z,5.20
2018-04-01T20:43:15.738Z,5.40
2018-04-01T20:45:43.582Z,5.10
2018-04-01T20:48:11.138Z,5.03
2018-04-01T20:50:38.690Z,4.73
2018-04-01T20:53:06.442Z,4.60
2018-04-01T20:55:34.033Z,5.03
2018-04-01T20:58:01.608Z,5.13
2018-04-01T21:00:29.228Z,4.53
2018-04-01T21:02:56.794Z,4.83
2018-04-01T21:05:24.328Z,4.60
2018-04-01T21:07:51.952Z,5.30
2018-04-01T21:10:19.518Z,5.20
2018-04-01T21:12:47.071Z,5.17
2018-04-01T21:15:14.727Z,5.07
2018-04-01T21:17:42.290Z,5.23
2018-04-01T21:20:09.855Z,4.77
2018-04-01T21:22:37.432Z,5.10
2018-04-01T21:25:04.985Z,5.03
2018-04-01T21:27:32.616Z,4.80
2018-04-01T21:30:00.367Z,4.80
2018-04-01T21:32:27.954Z,4.73
2018-04-01T21:34:55.507Z,4.30
2018-04-01T21:37:23.261Z,4.50
2018-04-01T21:39:50.812Z,5.20
2018-04-01T21:42:18.394Z,4.60
2018-04-01T21:44:46.083Z,4.40
2018-04-01T21:47:13.643Z,4.43
2018-04-01T21:49:41.205Z,4.50
2018-04-01T21:52:08.932Z,4.93
2018-04-01T21:54:36.484Z,4.40
2018-04-01T21:57:04.040Z,4.00
2018-04-01T21:59:31.613Z,4.33
2018-04-01T22:01:59.165Z,3.67
2018-04-01T22:04:26.751Z,3.90
2018-04-01T22:06:54.329Z,3.47
2018-04-01T22:09:21.902Z,4.33
2018-04-01T22:11:49.450Z,3.97
2018-04-01T22:14:17.038Z,3.73
2018-04-01T22:16:44.575Z,4.00
2018-04-01T22:19:12.109Z,3.83
2018-04-01T22:21:39.726Z,4.43
2018-04-01T22:24:07.263Z,4.67
2018-04-01T22:26:34.840Z,3.60
2018-04-01T22:29:02.577Z,4.27
2018-04-01T22:31:30.159Z,3.43
2018-04-01T22:33:57.702Z,4.07
2018-04-01T22:36:25.450Z,3.67
2018-04-01T22:38:52.993Z,3.73
2018-04-01T22:41:20.542Z,3.93
2018-04-01T22:43:48.284Z,3.70
2018-04-01T22:46:15.842Z,3.43
2018-04-01T22:48:43.383Z,3.80
2018-04-01T22:51:10.957Z,3.40
2018-04-01T22:53:38.500Z,3.40
2018-04-01T22:56:06.058Z,3.50
2018-04-01T22:58:33.729Z,3.93
2018-04-01T23:01:01.273Z,3.77
2018-04-01T23:03:28.825Z,3.87
2018-04-01T23:05:56.403Z,4.10
2018-04-01T23:08:23.941Z,3.23
2018-04-01T23:10:51.491Z,3.53
2018-04-01T23:13:19.069Z,3.60
2018-04-01T23:15:46.602Z,3.83
2018-04-01T23:18:14.143Z,3.30
2018-04-01T23:20:41.871Z,2.97
2018-04-01T23:23:09.437Z,3.40
2018-04-01T23:25:36.974Z,3.57
2018-04-01T23:28:04.838Z,3.17
2018-04-01T23:30:32.381Z,3.27
2018-04-01T23:32:59.928Z,3.50
2018-04-01T23:35:27.493Z,3.60
2018-04-01T23:37:55.023Z,3.40
2018-04-01T23:40:22.870Z,3.57
2018-04-01T23:42:50.432Z,3.20
2018-04-01T23:45:17.966Z,3.30
2018-04-01T23:47:45.708Z,3.20
2018-04-01T23:50:13.302Z,3.27
2018-04-01T23:52:40.858Z,3.63
2018-04-01T23:55:08.531Z,3.90
2018-04-01T23:57:36.091Z,3.77
